Amoret, Missouri
Current Conditions -  °F | °C
As of 5:53 PM on Wednesday 22 Oct 2014 (Local Time) from KOJC Reporting Station
Clear Clear  
Wind Chill: 21°   Ceiling: Unl
Heat Index: 21°   Visibility: 10mi
Dew Point: 14°   Wind: 9mph
Humidity: 65%   Direction: 150°SSE
Pressure: 30.09"   Gusts: NA
Location:  38.26°N, 94.59°W
Report Text: KOJC 222253Z 15008KT 10SM CLR 21/14 A3009 RMK AO2 SLP185 T02060139
Loading
Personal Weather Stations






























Interactive Weather Map
Tropical Storm Tracking
New forecast layout! Learn more

10-Day Weather Forecast

Advertisements
Track Severe Weather on mobile